Time;durP1;ratioP1;P1;durP2;ratioP2;P2;SDS_P1;SDS_P2;PMS_P1;PMS_P2;Temp;Humidity;BMP_temperature;BMP_pressure;BME280_temperature;BME280_humidity;BME280_pressure;Samples;Min_cycle;Max_cycle;Signal;HPM_P1;HPM_P2
2023/06/04 00:02:46;;;;;;;0.93;0.77;;;;;;;20.48;50.25;102027.84;20820668;28;20053;-71
2023/06/04 00:12:48;;;;;;;0.80;0.70;;;;;;;20.44;50.33;102011.00;20823453;28;20065;-71
2023/06/04 00:22:49;;;;;;;1.02;0.75;;;;;;;20.45;50.35;102020.00;20817102;28;20049;-71
2023/06/04 00:32:51;;;;;;;1.35;0.80;;;;;;;20.41;50.54;102016.66;20816338;28;20056;-71
2023/06/04 00:42:55;;;;;;;0.70;0.60;;;;;;;20.42;50.62;102013.84;20812621;28;20045;-71
2023/06/04 00:52:57;;;;;;;0.87;0.73;;;;;;;20.41;50.71;102006.72;20810362;28;20076;-71
2023/06/04 01:03:03;;;;;;;1.63;0.88;;;;;;;20.41;50.85;102022.97;20806756;28;20072;-71
2023/06/04 01:13:05;;;;;;;0.80;0.68;;;;;;;20.36;50.80;102014.38;20811205;28;20472;-71
2023/06/04 01:23:15;;;;;;;0.77;0.40;;;;;;;20.39;50.85;102018.63;20809317;28;20124;-70
2023/06/04 01:33:19;;;;;;;1.33;0.60;;;;;;;20.34;51.17;102013.63;20806274;28;20057;-71
2023/06/04 01:43:20;;;;;;;0.90;0.68;;;;;;;20.32;51.19;102007.47;20810449;28;20116;-71
2023/06/04 01:53:22;;;;;;;0.63;0.57;;;;;;;20.28;51.46;102004.16;20807406;28;20107;-71
2023/06/04 02:03:25;;;;;;;1.38;0.57;;;;;;;20.27;51.47;102009.69;20803286;28;20080;-71
2023/06/04 02:13:26;;;;;;;1.33;0.80;;;;;;;20.26;51.27;102013.38;20807144;28;20137;-71
2023/06/04 02:23:28;;;;;;;0.88;0.68;;;;;;;20.23;51.37;102009.09;20785034;28;20048;-71
2023/06/04 02:33:30;;;;;;;0.90;0.50;;;;;;;20.22;51.51;102014.59;20812468;28;20065;-70
2023/06/04 02:43:31;;;;;;;0.90;0.60;;;;;;;20.21;51.12;102004.78;20816225;28;20045;-71
2023/06/04 02:53:33;;;;;;;1.90;0.70;;;;;;;20.20;51.15;102013.88;20820777;28;20515;-71
2023/06/04 03:03:35;;;;;;;1.25;0.60;;;;;;;20.11;51.19;102004.69;20822172;28;20049;-70
2023/06/04 03:13:38;;;;;;;1.15;0.50;;;;;;;20.16;51.15;102013.28;20812223;28;20133;-71
2023/06/04 03:23:40;;;;;;;0.93;0.60;;;;;;;20.13;51.25;102008.13;20820826;28;20111;-70
2023/06/04 03:33:41;;;;;;;0.52;0.50;;;;;;;20.12;51.23;101995.59;20826978;28;20049;-70
2023/06/04 03:43:43;;;;;;;0.68;0.68;;;;;;;20.08;51.34;101994.97;20843937;28;20053;-70
2023/06/04 03:53:45;;;;;;;1.05;0.60;;;;;;;20.09;51.28;101995.81;20908795;28;20080;-70
2023/06/04 04:03:48;;;;;;;2.00;0.95;;;;;;;20.08;51.55;102002.19;20891449;28;20171;-70
2023/06/04 04:13:51;;;;;;;2.67;1.10;;;;;;;20.07;51.39;102001.34;20906453;28;20562;-70
2023/06/04 04:23:56;;;;;;;1.88;1.00;;;;;;;20.07;51.56;102003.19;20906046;28;20128;-70
2023/06/04 04:34:00;;;;;;;3.03;1.30;;;;;;;20.05;51.89;102006.03;20905941;28;20401;-70
2023/06/04 04:44:05;;;;;;;1.25;1.05;;;;;;;20.04;51.97;101993.50;20879192;28;20132;-70
2023/06/04 04:54:07;;;;;;;1.55;0.98;;;;;;;20.04;52.33;101998.03;20905810;28;20114;-70
2023/06/04 05:04:10;;;;;;;1.90;1.08;;;;;;;20.04;52.87;101998.91;20886915;28;20080;-70
2023/06/04 05:14:14;;;;;;;1.13;0.80;;;;;;;20.04;53.68;102003.44;20902223;28;20052;-70
2023/06/04 05:24:17;;;;;;;1.23;0.80;;;;;;;20.07;53.51;102009.47;20884708;28;20049;-70
2023/06/04 05:34:19;;;;;;;0.70;0.57;;;;;;;20.08;53.73;102000.38;20900793;28;20080;-70
2023/06/04 05:44:22;;;;;;;1.35;0.75;;;;;;;20.08;54.22;102011.19;20813452;28;20046;-68
2023/06/04 05:54:24;;;;;;;1.42;0.73;;;;;;;20.11;54.49;102020.91;20771908;28;20533;-68
2023/06/04 06:04:26;;;;;;;1.52;0.70;;;;;;;20.16;54.90;102012.41;20797959;28;20137;-67
2023/06/04 06:14:28;;;;;;;1.15;0.70;;;;;;;20.21;55.29;102015.59;20788676;28;20041;-69
2023/06/04 06:24:30;;;;;;;1.13;0.80;;;;;;;20.24;55.63;102020.75;20800326;28;20407;-68
2023/06/04 06:34:31;;;;;;;2.83;1.25;;;;;;;20.28;56.15;102025.78;20803510;28;20125;-69
2023/06/04 06:44:33;;;;;;;1.02;0.77;;;;;;;20.32;56.37;102031.78;20792913;28;20128;-69
2023/06/04 06:54:35;;;;;;;1.33;0.73;;;;;;;20.33;56.71;102035.38;20800212;28;20536;-69
2023/06/04 07:04:37;;;;;;;2.03;0.90;;;;;;;20.33;57.23;102036.25;20776805;28;20128;-70
2023/06/04 07:14:38;;;;;;;1.00;0.70;;;;;;;20.41;57.29;102043.72;20794524;28;20057;-69
2023/06/04 07:24:40;;;;;;;1.85;0.95;;;;;;;20.48;57.58;102044.09;20797990;28;20541;-70
2023/06/04 07:34:42;;;;;;;1.58;1.00;;;;;;;20.72;57.07;102043.91;20801879;28;20452;-69
2023/06/04 07:44:43;;;;;;;1.38;0.80;;;;;;;20.77;56.86;102047.09;20791378;28;20073;-70
2023/06/04 07:54:45;;;;;;;2.25;0.85;;;;;;;20.96;56.78;102042.84;20807805;28;20544;-69
2023/06/04 08:04:47;;;;;;;1.10;0.80;;;;;;;21.08;56.85;102057.22;20844814;28;20049;-70
2023/06/04 08:14:50;;;;;;;2.90;0.93;;;;;;;22.70;54.42;102069.41;20814667;28;20053;-68
2023/06/04 08:24:51;;;;;;;1.93;0.90;;;;;;;24.16;50.65;102050.38;20794855;28;20104;-66
2023/06/04 08:34:54;;;;;;;1.50;0.90;;;;;;;24.98;48.08;102057.78;20815516;28;20045;-66
2023/06/04 08:44:57;;;;;;;2.53;0.80;;;;;;;25.98;45.20;102074.88;20820495;28;20053;-66
2023/06/04 08:54:59;;;;;;;1.70;0.85;;;;;;;25.63;44.94;102045.72;20796342;28;21160;-65
2023/06/04 09:05:01;;;;;;;2.00;1.00;;;;;;;24.46;45.66;102061.97;20811436;28;20050;-65
2023/06/04 09:15:03;;;;;;;1.93;1.03;;;;;;;23.66;47.48;102066.97;20792441;28;20053;-65
2023/06/04 09:25:08;;;;;;;3.38;1.30;;;;;;;23.15;47.72;102053.56;20788562;28;20055;-65
2023/06/04 09:35:13;;;;;;;4.40;1.20;;;;;;;22.94;48.41;102070.84;20804302;28;20132;-65
2023/06/04 09:45:27;;;;;;;2.80;1.30;;;;;;;22.78;48.59;102062.41;20792012;28;20513;-66
2023/06/04 09:55:29;;;;;;;1.73;0.95;;;;;;;22.67;49.32;102066.09;20797079;28;20145;-66
2023/06/04 10:05:32;;;;;;;1.23;0.90;;;;;;;22.55;50.14;102057.25;20793544;28;20457;-66
2023/06/04 10:15:35;;;;;;;1.67;0.90;;;;;;;22.44;50.21;102056.31;20800229;28;20099;-66
2023/06/04 10:25:37;;;;;;;2.28;0.85;;;;;;;22.40;50.29;102070.31;20793304;28;20103;-66
2023/06/04 10:35:38;;;;;;;2.15;1.00;;;;;;;22.35;50.23;102068.00;20813133;28;20551;-66
2023/06/04 10:45:40;;;;;;;1.27;0.95;;;;;;;22.31;49.96;102077.41;20813329;28;20052;-66
2023/06/04 10:55:48;;;;;;;1.10;0.70;;;;;;;22.20;49.85;102072.09;20820872;28;20049;-66
2023/06/04 11:05:50;;;;;;;1.73;0.88;;;;;;;22.23;49.74;102077.22;20808922;28;20123;-66
2023/06/04 11:15:52;;;;;;;1.77;0.77;;;;;;;22.17;49.48;102068.66;20802666;28;20099;-66
2023/06/04 11:25:54;;;;;;;1.13;0.80;;;;;;;22.12;49.18;102060.06;20825174;28;20045;-66
2023/06/04 11:35:56;;;;;;;1.02;0.93;;;;;;;22.07;49.07;102047.91;20816275;28;20049;-66
2023/06/04 11:45:58;;;;;;;1.48;0.73;;;;;;;21.97;49.54;102037.00;20814954;28;20049;-66
2023/06/04 11:56:00;;;;;;;1.10;0.80;;;;;;;22.00;49.49;102045.75;20854552;28;20060;-66
2023/06/04 12:06:11;;;;;;;1.75;0.80;;;;;;;21.98;49.36;102038.72;20782880;28;20062;-66
2023/06/04 12:16:15;;;;;;;2.35;1.02;;;;;;;21.96;49.71;102032.56;20794349;28;20045;-67
2023/06/04 12:26:28;;;;;;;1.93;0.90;;;;;;;21.94;49.82;102031.84;20781591;28;20525;-66
2023/06/04 12:36:30;;;;;;;2.80;1.08;;;;;;;21.91;49.65;102026.72;20799198;28;20049;-66
2023/06/04 12:46:31;;;;;;;1.15;0.85;;;;;;;21.88;49.61;102028.69;20789259;28;20144;-66
2023/06/04 12:56:33;;;;;;;1.88;0.90;;;;;;;21.86;49.54;102022.56;20782646;28;20457;-65
2023/06/04 13:06:35;;;;;;;2.60;1.08;;;;;;;21.84;49.89;102016.41;20770412;28;20054;-65
2023/06/04 13:16:40;;;;;;;1.40;0.95;;;;;;;21.87;50.19;102015.25;20775173;28;20057;-65
2023/06/04 13:26:42;;;;;;;3.17;1.15;;;;;;;21.90;50.07;102019.56;20790833;28;20124;-65
2023/06/04 13:36:44;;;;;;;0.93;0.73;;;;;;;21.90;50.96;102014.16;20787032;28;20046;-65
2023/06/04 13:46:46;;;;;;;2.65;0.98;;;;;;;21.92;52.00;102012.16;20771949;28;20049;-65
2023/06/04 13:56:48;;;;;;;3.60;1.27;;;;;;;21.90;52.97;101997.88;20777092;28;20049;-65
2023/06/04 14:06:50;;;;;;;3.42;1.10;;;;;;;21.91;53.61;102002.31;20770344;28;20592;-65
2023/06/04 14:16:54;;;;;;;2.40;1.38;;;;;;;21.92;53.74;101994.06;20763048;28;20136;-65
2023/06/04 14:26:59;;;;;;;3.65;1.20;;;;;;;21.91;53.95;101999.59;20761622;28;20045;-64
2023/06/04 14:37:01;;;;;;;1.85;0.90;;;;;;;21.83;53.70;101993.00;20789575;28;20143;-65
2023/06/04 14:47:03;;;;;;;1.65;0.95;;;;;;;21.84;53.89;101996.56;20803270;28;20049;-65
2023/06/04 14:57:05;;;;;;;2.13;0.73;;;;;;;21.82;53.79;101991.28;20796842;28;20052;-65
2023/06/04 15:07:06;;;;;;;1.92;1.00;;;;;;;21.83;55.00;101998.44;20787231;28;20141;-67
2023/06/04 15:17:09;;;;;;;2.08;1.00;;;;;;;21.87;56.32;101989.03;20798490;28;20057;-68
2023/06/04 15:27:11;;;;;;;6.47;3.08;;;;;;;21.89;58.05;101994.31;20781699;28;20053;-68
2023/06/04 15:37:12;;;;;;;5.32;2.88;;;;;;;21.96;58.68;101991.91;20779182;28;20133;-67
2023/06/04 15:47:14;;;;;;;8.02;2.85;;;;;;;22.02;58.85;101991.34;20783241;28;20049;-70
2023/06/04 15:57:16;;;;;;;5.32;2.10;;;;;;;22.02;58.63;101996.78;20789786;28;20049;-70
2023/06/04 16:07:17;;;;;;;2.63;1.48;;;;;;;21.99;58.30;102007.91;20787197;28;20053;-70
2023/06/04 16:17:19;;;;;;;1.77;1.20;;;;;;;21.94;58.01;101993.91;20809927;28;20482;-71
2023/06/04 16:27:21;;;;;;;3.72;1.60;;;;;;;21.86;57.87;101994.56;20794732;28;20042;-73
2023/06/04 16:37:22;;;;;;;2.65;1.10;;;;;;;21.83;58.83;101995.72;20797724;28;20060;-67
2023/06/04 16:47:24;;;;;;;4.60;1.50;;;;;;;21.76;57.98;101991.84;20808557;28;20052;-68
2023/06/04 16:57:26;;;;;;;5.30;1.35;;;;;;;21.70;57.67;102003.22;20764790;28;20045;-67
2023/06/04 17:07:28;;;;;;;2.70;1.20;;;;;;;21.65;56.99;102006.34;20799518;28;20056;-67
2023/06/04 17:17:30;;;;;;;2.95;1.10;;;;;;;21.59;57.01;101996.84;20792425;28;20053;-67
2023/06/04 17:27:38;;;;;;;2.85;1.40;;;;;;;21.56;56.86;101997.13;21035414;27;20409;-68
2023/06/04 17:37:40;;;;;;;2.25;1.08;;;;;;;21.54;56.68;101999.09;21016118;28;20139;-68
2023/06/04 17:47:42;;;;;;;3.03;1.15;;;;;;;21.49;56.58;102006.78;21025601;28;20045;-67
2023/06/04 17:57:43;;;;;;;2.30;1.17;;;;;;;21.43;56.20;102007.31;21030900;28;20415;-68
2023/06/04 18:07:45;;;;;;;3.22;1.00;;;;;;;21.36;56.29;102017.81;21010204;28;20422;-67
2023/06/04 18:17:47;;;;;;;2.33;1.33;;;;;;;21.28;56.05;102023.91;21044345;28;20045;-67
2023/06/04 18:27:48;;;;;;;1.92;1.00;;;;;;;21.25;55.80;102026.00;21016840;28;20466;-67
2023/06/04 18:37:50;;;;;;;2.30;1.30;;;;;;;21.20;55.56;102017.41;20984398;28;20540;-67
2023/06/04 18:47:52;;;;;;;1.50;1.05;;;;;;;21.16;55.44;102024.94;20949795;28;20524;-67
2023/06/04 18:57:53;;;;;;;2.58;0.90;;;;;;;21.12;55.41;102027.06;20951220;28;20420;-67
2023/06/04 19:07:55;;;;;;;1.85;1.63;;;;;;;21.06;55.38;102024.00;20960707;28;20064;-67
2023/06/04 19:17:57;;;;;;;1.25;0.93;;;;;;;20.98;55.18;102024.63;20983407;28;20044;-67
2023/06/04 19:27:59;;;;;;;1.20;0.98;;;;;;;20.99;55.12;102035.34;20974262;28;20049;-67
2023/06/04 19:38:02;;;;;;;1.20;1.10;;;;;;;20.94;55.30;102040.31;20955367;28;20386;-67
2023/06/04 19:48:04;;;;;;;2.47;1.10;;;;;;;20.91;55.24;102040.56;20960792;28;20076;-67
2023/06/04 19:58:06;;;;;;;1.33;1.00;;;;;;;20.88;55.17;102040.81;20965102;28;20139;-67
2023/06/04 20:08:08;;;;;;;1.80;1.17;;;;;;;20.86;55.17;102053.63;20963193;28;20416;-67
2023/06/04 20:18:09;;;;;;;2.92;1.60;;;;;;;20.83;55.17;102062.00;20950678;28;20052;-67
2023/06/04 20:28:11;;;;;;;1.73;1.25;;;;;;;20.77;55.18;102070.56;20941667;28;20050;-67
2023/06/04 20:38:13;;;;;;;1.92;1.00;;;;;;;20.76;55.24;102079.69;20960224;28;20071;-68
2023/06/04 20:48:15;;;;;;;1.75;1.10;;;;;;;20.74;55.07;102093.34;20958586;28;20063;-67
2023/06/04 20:58:17;;;;;;;1.45;1.02;;;;;;;20.71;55.03;102094.44;20936247;28;20094;-67
2023/06/04 21:08:19;;;;;;;2.30;1.20;;;;;;;20.68;55.01;102099.28;20950074;28;20139;-67
2023/06/04 21:18:22;;;;;;;1.45;1.17;;;;;;;20.64;54.74;102093.22;20953203;28;20048;-67
2023/06/04 21:28:24;;;;;;;1.90;1.33;;;;;;;20.57;54.84;102086.59;20957231;28;20083;-67
2023/06/04 21:38:27;;;;;;;2.10;1.45;;;;;;;20.60;54.69;102093.63;20926545;28;20099;-67
2023/06/04 21:48:28;;;;;;;1.40;1.05;;;;;;;20.57;54.59;102095.59;20964353;28;20053;-67
2023/06/04 21:58:30;;;;;;;1.10;1.00;;;;;;;20.56;54.32;102096.59;20958466;28;20049;-68
2023/06/04 22:08:31;;;;;;;1.52;1.20;;;;;;;20.53;54.36;102101.38;20959392;28;20060;-68
2023/06/04 22:18:33;;;;;;;1.98;1.33;;;;;;;20.52;54.15;102100.50;20950093;28;20045;-67
2023/06/04 22:28:52;;;;;;;1.25;1.15;;;;;;;20.50;54.08;102101.63;20976741;28;20140;-68
2023/06/04 22:38:54;;;;;;;1.65;1.27;;;;;;;20.49;54.10;102099.91;20942790;28;20102;-67
2023/06/04 22:48:55;;;;;;;1.20;1.08;;;;;;;20.40;54.14;102091.56;20980286;28;20144;-67
2023/06/04 22:58:57;;;;;;;1.30;1.20;;;;;;;20.46;54.07;102105.56;20964791;28;20048;-68
2023/06/04 23:08:59;;;;;;;1.55;1.38;;;;;;;20.42;53.85;102113.94;20942940;28;20056;-68
2023/06/04 23:19:01;;;;;;;2.08;1.55;;;;;;;20.39;53.92;102114.19;20948548;28;20055;-67
2023/06/04 23:29:02;;;;;;;1.40;1.30;;;;;;;20.32;53.82;102110.22;20949725;28;20123;-67
2023/06/04 23:39:04;;;;;;;1.30;1.20;;;;;;;20.33;53.83;102128.19;20959006;28;20048;-67
2023/06/04 23:49:06;;;;;;;1.85;1.23;;;;;;;20.29;53.59;102122.16;20971825;28;20513;-68
2023/06/04 23:59:07;;;;;;;1.48;1.38;;;;;;;20.27;53.50;102123.25;20964189;28;20127;-68
